Time;durP1;ratioP1;P1;durP2;ratioP2;P2;SDS_P1;SDS_P2;PMS_P1;PMS_P2;Temp;Humidity;BMP_temperature;BMP_pressure;BME280_temperature;BME280_humidity;BME280_pressure;Samples;Min_cycle;Max_cycle;Signal;HPM_P1;HPM_P2
2023/08/15 00:03:05;;;;;;;18.17;7.80;;;;;20.40;96362.00;;;;8346207;28;20229;-75
2023/08/15 00:07:10;;;;;;;9.48;7.25;;;;;20.40;96359.00;;;;8348760;28;20220;-74
2023/08/15 00:11:14;;;;;;;10.90;7.60;;;;;20.40;96345.00;;;;8348629;28;20211;-74
2023/08/15 00:15:21;;;;;;;10.40;7.68;;;;;20.40;96343.00;;;;8349802;28;20307;-73
2023/08/15 00:19:28;;;;;;;15.93;8.30;;;;;20.40;96354.00;;;;8329901;28;20201;-73
2023/08/15 00:23:45;;;;;;;11.65;7.90;;;;;20.30;96354.00;;;;8343729;28;20559;-74
2023/08/15 00:27:48;;;;;;;15.27;7.68;;;;;20.20;96367.00;;;;8346949;28;20230;-74
2023/08/15 00:31:51;;;;;;;16.13;8.23;;;;;20.20;96353.00;;;;8348795;28;20200;-73
2023/08/15 00:35:54;;;;;;;11.65;8.50;;;;;20.10;96359.00;;;;8345697;28;20650;-73
2023/08/15 00:40:01;;;;;;;11.88;7.57;;;;;20.10;96362.00;;;;8323171;28;20200;-75
2023/08/15 00:44:05;;;;;;;11.38;8.25;;;;;20.10;96356.00;;;;8336942;28;20641;-73
2023/08/15 00:48:08;;;;;;;9.85;7.35;;;;;20.00;96351.00;;;;8339875;28;20230;-74
2023/08/15 00:52:13;;;;;;;14.15;7.95;;;;;19.90;96348.00;;;;8347000;28;20208;-74
2023/08/15 00:56:19;;;;;;;12.98;7.55;;;;;19.70;96340.00;;;;8346566;28;20295;-74
2023/08/15 01:00:25;;;;;;;12.80;8.55;;;;;19.70;96345.00;;;;8346387;28;20195;-74
2023/08/15 01:04:31;;;;;;;14.02;7.60;;;;;19.60;96343.00;;;;8346310;28;20231;-74
2023/08/15 01:08:43;;;;;;;10.15;7.25;;;;;19.60;96356.00;;;;8353025;28;20332;-74
2023/08/15 01:12:59;;;;;;;10.77;7.75;;;;;19.60;96356.00;;;;8351540;28;20189;-74
2023/08/15 01:17:03;;;;;;;15.48;7.22;;;;;19.50;96363.00;;;;8351454;28;20223;-74
2023/08/15 01:21:08;;;;;;;12.60;8.18;;;;;19.40;96359.00;;;;8352184;28;20201;-73
2023/08/15 01:25:13;;;;;;;12.50;8.32;;;;;19.30;96361.00;;;;8349876;28;20225;-74
2023/08/15 01:29:19;;;;;;;18.65;9.48;;;;;19.30;96354.00;;;;8349347;28;20621;-74
2023/08/15 01:33:29;;;;;;;18.10;8.88;;;;;19.30;96354.00;;;;8352988;28;20204;-74
2023/08/15 01:37:35;;;;;;;14.70;8.35;;;;;19.30;96344.00;;;;8351306;28;20224;-74
2023/08/15 01:41:43;;;;;;;12.98;8.52;;;;;19.30;96348.00;;;;8352924;28;20343;-74
2023/08/15 01:45:47;;;;;;;20.17;8.82;;;;;19.30;96338.00;;;;8333645;28;20232;-73
2023/08/15 01:49:50;;;;;;;14.38;8.75;;;;;19.20;96338.00;;;;8348401;28;20234;-74
2023/08/15 01:53:53;;;;;;;14.77;9.15;;;;;19.20;96346.00;;;;8351830;28;20208;-74
2023/08/15 01:58:00;;;;;;;11.77;8.05;;;;;19.20;96340.00;;;;8350448;28;20315;-73
2023/08/15 02:02:06;;;;;;;16.50;8.55;;;;;19.20;96338.00;;;;8333625;28;20250;-74
2023/08/15 02:06:11;;;;;;;18.42;10.68;;;;;19.20;96336.00;;;;8342917;28;20288;-74
2023/08/15 02:10:16;;;;;;;15.45;9.52;;;;;19.20;96333.00;;;;8343495;28;20343;-74
2023/08/15 02:14:21;;;;;;;17.45;8.57;;;;;19.20;96338.00;;;;8352035;28;20288;-74
2023/08/15 02:18:26;;;;;;;13.15;8.20;;;;;19.10;96328.00;;;;8352633;28;20809;-74
2023/08/15 02:22:32;;;;;;;15.13;8.70;;;;;19.10;96335.00;;;;8351892;28;20207;-73
2023/08/15 02:26:35;;;;;;;17.90;9.13;;;;;19.10;96323.00;;;;8349522;28;20236;-74
2023/08/15 02:30:40;;;;;;;14.13;8.43;;;;;19.10;96320.00;;;;8328398;28;20260;-74
2023/08/15 02:34:44;;;;;;;14.13;9.45;;;;;19.00;96329.00;;;;8350421;28;20233;-74
2023/08/15 02:38:49;;;;;;;14.25;8.77;;;;;19.00;96324.00;;;;8350453;28;20616;-74
2023/08/15 02:42:57;;;;;;;15.75;9.70;;;;;18.90;96321.00;;;;8349945;28;20247;-74
2023/08/15 02:47:02;;;;;;;19.48;9.70;;;;;18.90;96322.00;;;;8350146;28;20205;-74
2023/08/15 02:51:07;;;;;;;15.73;8.70;;;;;18.90;96317.00;;;;8338675;28;20200;-72
2023/08/15 02:55:10;;;;;;;13.00;8.70;;;;;18.90;96307.00;;;;8346824;28;20207;-72
2023/08/15 02:59:14;;;;;;;16.63;10.05;;;;;18.90;96311.00;;;;8341010;28;20216;-74
2023/08/15 03:03:25;;;;;;;18.08;10.02;;;;;18.90;96311.00;;;;8353221;23;20251;-74
2023/08/15 03:07:28;;;;;;;25.77;10.38;;;;;18.80;96311.00;;;;8346086;28;20286;-74
2023/08/15 03:11:32;;;;;;;16.02;9.15;;;;;18.80;96316.00;;;;8347458;28;20211;-75
2023/08/15 03:15:37;;;;;;;16.08;9.18;;;;;18.70;96327.00;;;;8349768;28;20205;-74
2023/08/15 03:19:43;;;;;;;19.50;9.95;;;;;18.70;96320.00;;;;8350548;28;20316;-74
2023/08/15 03:23:48;;;;;;;17.35;9.52;;;;;18.70;96331.00;;;;8350138;28;20284;-74
2023/08/15 03:27:52;;;;;;;15.35;9.68;;;;;18.60;96331.00;;;;8350523;28;20224;-73
2023/08/15 03:31:58;;;;;;;16.77;10.55;;;;;18.60;96323.00;;;;8349316;28;20197;-73
2023/08/15 03:36:04;;;;;;;19.23;10.50;;;;;18.50;96305.00;;;;8349460;28;20555;-73
2023/08/15 03:40:11;;;;;;;22.60;10.80;;;;;18.50;96312.00;;;;8348914;28;20201;-73
2023/08/15 03:44:14;;;;;;;24.63;11.43;;;;;18.50;96309.00;;;;8349065;28;20205;-75
2023/08/15 03:48:17;;;;;;;24.85;11.23;;;;;18.40;96305.00;;;;8346790;28;20242;-73
2023/08/15 03:52:24;;;;;;;21.08;11.02;;;;;18.40;96303.00;;;;8348498;28;20201;-73
2023/08/15 03:56:29;;;;;;;14.93;10.43;;;;;18.50;96326.00;;;;8350401;28;20221;-72
2023/08/15 04:00:36;;;;;;;15.27;9.65;;;;;18.50;96323.00;;;;8353537;28;20196;-74
2023/08/15 04:04:43;;;;;;;15.82;9.85;;;;;18.40;96317.00;;;;8338446;28;20278;-76
2023/08/15 04:08:47;;;;;;;15.07;10.30;;;;;18.40;96322.00;;;;8338650;28;20223;-73
2023/08/15 04:12:56;;;;;;;16.88;9.85;;;;;18.40;96326.00;;;;8335891;28;20207;-75
2023/08/15 04:17:08;;;;;;;17.65;10.98;;;;;18.40;96329.00;;;;8338220;28;20786;-75
2023/08/15 04:21:17;;;;;;;18.90;9.80;;;;;18.50;96333.00;;;;8333751;28;20287;-73
2023/08/15 04:25:22;;;;;;;14.23;10.13;;;;;18.50;96343.00;;;;8340693;28;20288;-74
2023/08/15 04:29:27;;;;;;;15.63;10.02;;;;;18.50;96342.00;;;;8322582;28;20229;-73
2023/08/15 04:33:33;;;;;;;19.10;11.60;;;;;18.50;96332.00;;;;8334648;28;20207;-74
2023/08/15 04:37:40;;;;;;;12.90;9.50;;;;;18.60;96342.00;;;;8333268;28;20274;-75
2023/08/15 04:41:44;;;;;;;12.75;8.93;;;;;18.70;96336.00;;;;8338496;28;20729;-76
2023/08/15 04:45:47;;;;;;;61.35;10.65;;;;;18.70;96335.00;;;;8310876;28;20210;-75
2023/08/15 04:49:53;;;;;;;24.13;11.95;;;;;18.70;96336.00;;;;8324038;28;20263;-75
2023/08/15 04:53:56;;;;;;;21.67;12.30;;;;;18.80;96343.00;;;;8317019;28;20839;-76
2023/08/15 04:58:01;;;;;;;14.98;10.85;;;;;19.00;96345.00;;;;8326565;28;20204;-75
2023/08/15 05:02:04;;;;;;;18.15;10.48;;;;;19.20;96348.00;;;;8322566;28;20225;-75
2023/08/15 05:06:08;;;;;;;17.08;10.65;;;;;19.30;96348.00;;;;8334550;28;20200;-74
2023/08/15 05:10:14;;;;;;;16.23;10.48;;;;;19.50;96348.00;;;;8313882;28;20220;-74
2023/08/15 05:14:19;;;;;;;18.17;10.77;;;;;19.70;96366.00;;;;8316380;28;20212;-74
2023/08/15 05:18:26;;;;;;;17.75;10.52;;;;;19.80;96361.00;;;;8323652;28;20646;-74
2023/08/15 05:22:30;;;;;;;13.80;9.27;;;;;20.00;96365.00;;;;8307742;28;20300;-75
2023/08/15 05:26:33;;;;;;;13.27;9.38;;;;;20.20;96372.00;;;;8313805;28;20821;-77
2023/08/15 05:30:38;;;;;;;11.38;8.18;;;;;20.40;96378.00;;;;8327365;28;20259;-75
2023/08/15 05:34:42;;;;;;;14.43;8.65;;;;;20.50;96377.00;;;;8290682;28;20200;-76
2023/08/15 05:38:49;;;;;;;15.88;8.45;;;;;20.70;96379.00;;;;8303522;28;20207;-75
2023/08/15 05:42:52;;;;;;;20.38;8.15;;;;;20.80;96381.00;;;;8317943;28;21066;-75
2023/08/15 05:46:56;;;;;;;11.98;7.55;;;;;21.10;96379.00;;;;8307806;28;20790;-78
2023/08/15 05:51:00;;;;;;;8.75;7.38;;;;;21.30;96378.00;;;;8311521;28;20229;-76
2023/08/15 05:55:07;;;;;;;12.50;7.35;;;;;21.50;96379.00;;;;8314682;28;20201;-74
2023/08/15 05:59:11;;;;;;;11.73;7.00;;;;;21.80;96378.00;;;;8319483;28;20216;-73
2023/08/15 06:03:19;;;;;;;14.50;7.18;;;;;22.00;96378.00;;;;8308268;28;20255;-76
2023/08/15 06:07:42;;;;;;;11.18;7.30;;;;;22.20;96379.00;;;;8339211;28;20246;-76
2023/08/15 06:11:45;;;;;;;8.25;6.82;;;;;22.50;96390.00;;;;8342631;28;20229;-76
2023/08/15 06:15:51;;;;;;;8.68;6.82;;;;;22.80;96387.00;;;;8328313;28;20280;-77
2023/08/15 06:19:56;;;;;;;10.18;7.00;;;;;23.10;96391.00;;;;8336488;28;20228;-78
2023/08/15 06:24:02;;;;;;;9.35;7.57;;;;;23.40;96389.00;;;;8336223;28;20236;-72
2023/08/15 06:28:06;;;;;;;11.48;7.07;;;;;23.80;96397.00;;;;8336065;28;20702;-79
2023/08/15 06:32:32;;;;;;;9.38;6.90;;;;;24.20;96407.00;;;;8335401;28;20217;-71
2023/08/15 06:36:41;;;;;;;8.10;6.78;;;;;24.60;96409.00;;;;8335542;28;20280;-74
2023/08/15 06:40:47;;;;;;;10.68;7.20;;;;;25.10;96400.00;;;;8334873;28;20554;-76
2023/08/15 06:44:50;;;;;;;9.50;7.00;;;;;25.50;96408.00;;;;8335087;28;20224;-77
2023/08/15 06:48:56;;;;;;;11.02;6.90;;;;;26.00;96402.00;;;;8336014;28;20673;-76
2023/08/15 06:53:00;;;;;;;11.95;7.00;;;;;26.40;96400.00;;;;8334259;28;20233;-76
2023/08/15 06:57:07;;;;;;;8.35;6.70;;;;;26.90;96408.00;;;;8335005;28;20196;-76
2023/08/15 07:01:15;;;;;;;8.55;6.75;;;;;27.30;96415.00;;;;8335763;28;20193;-76
2023/08/15 07:05:18;;;;;;;9.18;6.43;;;;;27.70;96417.00;;;;8335691;28;20315;-76
2023/08/15 07:09:28;;;;;;;7.78;5.93;;;;;28.10;96430.00;;;;8335249;28;20287;-76
2023/08/15 07:13:32;;;;;;;8.85;6.30;;;;;28.40;96440.00;;;;8326870;28;20205;-76
2023/08/15 07:17:35;;;;;;;7.32;6.60;;;;;28.80;96441.00;;;;8335284;28;20204;-76
2023/08/15 07:21:41;;;;;;;11.77;6.82;;;;;29.30;96453.00;;;;8333683;28;20224;-76
2023/08/15 07:25:46;;;;;;;6.85;5.97;;;;;29.90;96445.00;;;;8334453;28;20243;-76
2023/08/15 07:29:51;;;;;;;8.55;5.93;;;;;30.70;96443.00;;;;8333985;28;20259;-77
2023/08/15 07:33:56;;;;;;;11.60;6.68;;;;;31.30;96457.00;;;;8333837;28;20194;-76
2023/08/15 07:37:59;;;;;;;7.32;6.65;;;;;31.90;96452.00;;;;8333768;28;20288;-76
2023/08/15 07:42:05;;;;;;;6.70;5.75;;;;;32.60;96448.00;;;;8334503;28;20193;-77
2023/08/15 07:46:10;;;;;;;10.32;6.72;;;;;33.10;96449.00;;;;8333415;28;20240;-76
2023/08/15 07:50:17;;;;;;;9.88;6.57;;;;;33.50;96448.00;;;;8333538;28;20225;-77
2023/08/15 07:54:20;;;;;;;7.07;6.18;;;;;33.70;96450.00;;;;8333334;28;20198;-76
2023/08/15 07:58:35;;;;;;;8.07;6.15;;;;;33.80;96449.00;;;;8333155;28;20200;-76
2023/08/15 08:02:41;;;;;;;11.07;6.85;;;;;34.00;96466.00;;;;8333432;28;20598;-77
2023/08/15 08:06:46;;;;;;;8.50;6.28;;;;;34.30;96471.00;;;;8315352;28;20194;-76
2023/08/15 08:10:49;;;;;;;9.57;5.95;;;;;34.60;96469.00;;;;8299272;28;20224;-76
2023/08/15 08:14:53;;;;;;;7.30;6.45;;;;;35.10;96473.00;;;;8331541;28;20280;-76
2023/08/15 08:19:00;;;;;;;12.43;6.40;;;;;35.30;96471.00;;;;8332795;28;20193;-76
2023/08/15 08:23:05;;;;;;;7.85;6.63;;;;;35.40;96464.00;;;;8332439;28;20228;-76
2023/08/15 08:27:08;;;;;;;11.70;6.65;;;;;35.70;96462.00;;;;8333930;28;20522;-76
2023/08/15 08:31:15;;;;;;;11.02;5.85;;;;;36.30;96462.00;;;;8332644;28;20317;-76
2023/08/15 08:35:19;;;;;;;10.57;6.57;;;;;36.70;96470.00;;;;8332661;28;20220;-76
2023/08/15 08:39:23;;;;;;;9.68;6.05;;;;;36.80;96468.00;;;;8334116;28;20610;-77
2023/08/15 08:43:37;;;;;;;8.95;6.65;;;;;36.80;96473.00;;;;8331814;28;20178;-77
2023/08/15 08:47:46;;;;;;;8.23;6.38;;;;;36.50;96471.00;;;;8331941;28;20177;-76
2023/08/15 08:51:53;;;;;;;7.53;6.78;;;;;36.10;96472.00;;;;8332222;28;20228;-76
2023/08/15 08:56:05;;;;;;;7.40;6.68;;;;;36.20;96478.00;;;;8333622;28;20281;-76
2023/08/15 09:00:12;;;;;;;11.15;6.30;;;;;36.30;96473.00;;;;8331801;28;20197;-76
2023/08/15 09:04:21;;;;;;;8.98;6.50;;;;;36.50;96468.00;;;;8332294;28;20662;-76
2023/08/15 09:08:30;;;;;;;7.55;6.82;;;;;36.80;96475.00;;;;8331499;28;20193;-76
2023/08/15 09:12:35;;;;;;;10.10;6.60;;;;;37.20;96469.00;;;;8331684;28;20315;-76
2023/08/15 09:16:47;;;;;;;9.25;6.38;;;;;37.50;96479.00;;;;8332024;28;20288;-77
2023/08/15 09:20:52;;;;;;;8.57;5.50;;;;;37.90;96468.00;;;;8328371;28;20205;-77
2023/08/15 09:24:55;;;;;;;11.88;6.93;;;;;38.50;96472.00;;;;8331884;28;20240;-76
2023/08/15 09:28:58;;;;;;;7.03;6.30;;;;;38.80;96478.00;;;;8334771;28;20239;-77
2023/08/15 09:33:02;;;;;;;7.55;5.75;;;;;39.10;96474.00;;;;8338288;28;20268;-77
2023/08/15 09:37:11;;;;;;;10.27;6.13;;;;;39.40;96461.00;;;;8335088;28;20296;-75
2023/08/15 09:41:14;;;;;;;6.65;5.95;;;;;39.50;96461.00;;;;8337498;28;20193;-78
2023/08/15 09:45:20;;;;;;;8.40;5.90;;;;;39.80;96463.00;;;;8336964;28;20714;-77
2023/08/15 09:49:29;;;;;;;6.63;5.97;;;;;40.10;96462.00;;;;8336688;28;20234;-77
2023/08/15 09:53:38;;;;;;;8.07;5.40;;;;;40.50;96460.00;;;;8338043;28;20332;-77
2023/08/15 09:57:45;;;;;;;10.45;5.40;;;;;40.50;96459.00;;;;8337387;28;20619;-77
2023/08/15 10:01:51;;;;;;;6.43;5.82;;;;;40.60;96453.00;;;;8337542;28;20633;-80
2023/08/15 10:05:56;;;;;;;8.60;6.18;;;;;40.50;96450.00;;;;8336568;28;20233;-81
2023/08/15 10:10:03;;;;;;;12.00;6.40;;;;;40.60;96461.00;;;;8337307;28;20622;-79
2023/08/15 10:14:08;;;;;;;7.25;6.47;;;;;40.40;96454.00;;;;8336974;28;20642;-79
2023/08/15 10:18:12;;;;;;;10.82;6.60;;;;;39.70;96446.00;;;;8336544;28;20236;-78
2023/08/15 10:22:19;;;;;;;6.85;6.15;;;;;39.30;96445.00;;;;8335695;28;20191;-79
2023/08/15 10:26:26;;;;;;;6.70;6.10;;;;;39.40;96438.00;;;;8336886;28;20260;-79
2023/08/15 10:30:36;;;;;;;9.35;6.60;;;;;39.30;96431.00;;;;8335881;28;20296;-79
2023/08/15 10:34:43;;;;;;;6.40;5.47;;;;;39.80;96434.00;;;;8336665;28;20195;-81
2023/08/15 10:38:50;;;;;;;8.45;5.80;;;;;40.10;96441.00;;;;8335705;28;20273;-81
2023/08/15 10:43:15;;;;;;;6.35;5.75;;;;;40.40;96445.00;;;;8335783;28;20689;-81
2023/08/15 10:47:24;;;;;;;6.53;5.80;;;;;40.20;96439.00;;;;8336141;28;20197;-80
2023/08/15 10:51:29;;;;;;;8.35;5.72;;;;;40.30;96446.00;;;;8335239;28;20260;-80
2023/08/15 10:55:43;;;;;;;12.52;5.70;;;;;40.50;96448.00;;;;8336308;28;20198;-78
2023/08/15 10:59:48;;;;;;;6.72;5.20;;;;;40.70;96449.00;;;;8335740;28;20221;-75
2023/08/15 11:03:52;;;;;;;6.97;5.15;;;;;40.70;96448.00;;;;8335001;28;20324;-75
2023/08/15 11:08:13;;;;;;;7.53;5.18;;;;;41.30;96450.00;;;;8335211;28;20216;-76
2023/08/15 11:12:16;;;;;;;7.38;5.60;;;;;41.40;96448.00;;;;8334773;28;20260;-76
2023/08/15 11:16:22;;;;;;;5.68;5.13;;;;;41.20;96443.00;;;;8332592;28;20229;-76
2023/08/15 11:20:29;;;;;;;8.10;5.93;;;;;41.40;96449.00;;;;8335086;28;20243;-76
2023/08/15 11:24:33;;;;;;;8.13;5.32;;;;;41.70;96446.00;;;;8335002;28;20504;-76
2023/08/15 11:28:36;;;;;;;6.22;5.35;;;;;42.30;96444.00;;;;8335551;28;20232;-81
2023/08/15 11:32:41;;;;;;;6.20;5.35;;;;;42.80;96439.00;;;;8332927;28;20225;-74
2023/08/15 11:36:46;;;;;;;5.80;5.30;;;;;42.80;96441.00;;;;8333039;28;20255;-74
2023/08/15 11:40:49;;;;;;;5.95;5.38;;;;;42.70;96427.00;;;;8334972;28;20204;-74
2023/08/15 11:45:02;;;;;;;7.65;5.60;;;;;42.80;96430.00;;;;8333458;28;20201;-74
2023/08/15 11:49:20;;;;;;;9.95;5.38;;;;;43.00;96431.00;;;;8333184;28;20184;-75
2023/08/15 11:53:23;;;;;;;7.20;5.63;;;;;43.20;96424.00;;;;8333853;28;20247;-75
2023/08/15 11:57:36;;;;;;;7.15;5.43;;;;;43.30;96429.00;;;;8316012;28;20523;-74
2023/08/15 12:01:45;;;;;;;5.38;4.82;;;;;43.20;96419.00;;;;8334365;28;20634;-74
2023/08/15 12:05:54;;;;;;;7.28;5.93;;;;;42.40;96431.00;;;;8333351;28;20201;-75
2023/08/15 12:09:57;;;;;;;6.07;4.93;;;;;41.60;96418.00;;;;8333702;28;20197;-75
2023/08/15 12:14:02;;;;;;;4.82;3.78;;;;;40.60;96419.00;;;;8334951;28;20221;-74
2023/08/15 12:18:07;;;;;;;7.72;3.95;;;;;39.50;96414.00;;;;8330483;28;20276;-75
2023/08/15 12:22:12;;;;;;;4.55;4.05;;;;;38.50;96413.00;;;;8332697;28;20193;-74
2023/08/15 12:26:18;;;;;;;7.72;4.10;;;;;38.20;96407.00;;;;8332855;28;20236;-74
2023/08/15 12:30:26;;;;;;;10.65;4.65;;;;;37.90;96406.00;;;;8333304;28;20197;-74
2023/08/15 12:34:33;;;;;;;5.70;3.50;;;;;37.00;96404.00;;;;8332935;28;20276;-74
2023/08/15 12:38:39;;;;;;;4.10;3.00;;;;;36.10;96401.00;;;;8327210;28;20538;-72
2023/08/15 12:42:42;;;;;;;7.10;3.10;;;;;35.20;96403.00;;;;8327814;28;20657;-75
2023/08/15 12:46:45;;;;;;;9.95;3.35;;;;;34.60;96395.00;;;;8332170;28;20201;-75
2023/08/15 12:50:48;;;;;;;6.85;3.65;;;;;34.30;96392.00;;;;8328855;28;20194;-76
2023/08/15 12:54:53;;;;;;;7.53;3.30;;;;;33.70;96374.00;;;;8324578;28;20714;-78
2023/08/15 12:58:56;;;;;;;9.82;3.60;;;;;31.80;96371.00;;;;8320688;28;20256;-83
2023/08/15 13:03:00;;;;;;;9.45;4.47;;;;;30.30;96373.00;;;;8328837;28;20264;-78
2023/08/15 13:07:05;;;;;;;9.10;4.13;;;;;29.40;96377.00;;;;8329584;28;20279;-76
2023/08/15 13:11:13;;;;;;;8.32;3.65;;;;;28.50;96379.00;;;;8329141;28;20559;-78
2023/08/15 13:15:16;;;;;;;9.15;4.53;;;;;27.80;96375.00;;;;8328504;28;20193;-73
2023/08/15 13:19:21;;;;;;;10.30;4.22;;;;;27.00;96374.00;;;;8330152;28;20194;-72
2023/08/15 13:23:26;;;;;;;8.38;4.80;;;;;26.40;96371.00;;;;8331336;28;20194;-73
2023/08/15 13:27:30;;;;;;;9.55;5.22;;;;;26.20;96383.00;;;;8312438;28;20204;-72
2023/08/15 13:31:35;;;;;;;7.22;4.80;;;;;26.00;96400.00;;;;8330100;28;20315;-72
2023/08/15 13:35:39;;;;;;;14.55;6.30;;;;;25.60;96414.00;;;;8331785;28;20284;-72
2023/08/15 13:39:42;;;;;;;14.90;6.28;;;;;25.40;96399.00;;;;8329156;28;20589;-72
2023/08/15 13:43:54;;;;;;;11.25;5.75;;;;;25.20;96400.00;;;;8316500;28;20645;-70
2023/08/15 13:48:00;;;;;;;17.65;6.93;;;;;25.00;96418.00;;;;8326594;28;20614;-72
2023/08/15 13:52:14;;;;;;;12.82;5.85;;;;;24.90;96437.00;;;;8330306;28;20277;-70
2023/08/15 13:56:17;;;;;;;12.13;6.03;;;;;24.50;96430.00;;;;8331010;28;20528;-70
2023/08/15 14:00:21;;;;;;;13.13;6.53;;;;;24.00;96420.00;;;;8313312;28;20554;-70
2023/08/15 14:04:25;;;;;;;16.33;6.38;;;;;23.70;96412.00;;;;8331957;28;20233;-72
2023/08/15 14:08:30;;;;;;;13.18;6.47;;;;;23.60;96401.00;;;;8331320;28;20248;-72
2023/08/15 14:12:35;;;;;;;12.10;6.95;;;;;23.60;96403.00;;;;8295209;28;20221;-71
2023/08/15 14:16:42;;;;;;;16.00;7.25;;;;;23.80;96405.00;;;;8333329;28;20538;-71
2023/08/15 14:20:47;;;;;;;12.85;6.57;;;;;23.90;96410.00;;;;8317157;28;20197;-71
2023/08/15 14:24:51;;;;;;;9.85;6.20;;;;;24.10;96416.00;;;;8319199;28;20592;-74
2023/08/15 14:28:57;;;;;;;14.32;6.03;;;;;24.00;96414.00;;;;8336437;28;20653;-75
2023/08/15 14:33:02;;;;;;;8.40;5.47;;;;;23.90;96414.00;;;;8329732;28;20256;-74
2023/08/15 14:37:09;;;;;;;14.15;5.80;;;;;24.10;96420.00;;;;8326672;28;20205;-73
2023/08/15 14:41:16;;;;;;;10.02;5.85;;;;;24.40;96409.00;;;;8307432;28;20642;-76
2023/08/15 14:45:19;;;;;;;12.13;5.80;;;;;24.80;96414.00;;;;8334003;28;20657;-76
2023/08/15 14:49:28;;;;;;;11.73;5.90;;;;;25.00;96398.00;;;;8334691;28;20197;-79
2023/08/15 14:53:32;;;;;;;11.48;5.45;;;;;25.20;96407.00;;;;8333571;28;20231;-79
2023/08/15 14:57:35;;;;;;;10.02;5.50;;;;;25.40;96395.00;;;;8315005;28;20229;-81
2023/08/15 15:01:39;;;;;;;14.30;6.15;;;;;25.60;96389.00;;;;8316775;28;20299;-78
2023/08/15 15:05:43;;;;;;;10.77;4.93;;;;;25.60;96376.00;;;;8300978;28;20182;-80
2023/08/15 15:09:49;;;;;;;11.32;5.03;;;;;25.80;96368.00;;;;8334104;28;20634;-78
2023/08/15 15:13:54;;;;;;;9.35;5.03;;;;;26.00;96358.00;;;;8332555;28;20229;-76
2023/08/15 15:17:58;;;;;;;12.85;5.45;;;;;26.20;96351.00;;;;8333172;28;20232;-76
2023/08/15 15:22:02;;;;;;;11.10;5.18;;;;;26.40;96334.00;;;;8333000;28;20327;-76
2023/08/15 15:26:06;;;;;;;8.43;5.20;;;;;26.70;96341.00;;;;8332717;28;20198;-76
2023/08/15 15:30:13;;;;;;;9.18;5.18;;;;;27.00;96347.00;;;;8333449;28;20280;-74
2023/08/15 15:34:18;;;;;;;9.93;4.57;;;;;27.30;96351.00;;;;8330985;28;20559;-76
2023/08/15 15:38:23;;;;;;;8.30;4.80;;;;;27.90;96368.00;;;;8329932;28;20619;-74
2023/08/15 15:42:27;;;;;;;8.43;4.90;;;;;28.30;96375.00;;;;8332744;28;20201;-76
2023/08/15 15:46:30;;;;;;;6.82;4.28;;;;;28.60;96377.00;;;;8332606;28;20296;-75
2023/08/15 15:50:51;;;;;;;9.50;4.68;;;;;28.90;96369.00;;;;8332335;28;20585;-75
2023/08/15 15:54:55;;;;;;;7.18;4.30;;;;;29.10;96369.00;;;;8331629;28;20673;-75
2023/08/15 15:59:01;;;;;;;10.40;4.55;;;;;29.30;96376.00;;;;8332462;28;20523;-75
2023/08/15 16:03:04;;;;;;;7.38;4.70;;;;;29.60;96392.00;;;;8331462;28;20233;-73
2023/08/15 16:07:10;;;;;;;7.35;4.93;;;;;29.80;96398.00;;;;8330276;28;20243;-73
2023/08/15 16:11:15;;;;;;;11.55;4.57;;;;;29.80;96413.00;;;;8330737;28;20228;-75
2023/08/15 16:15:18;;;;;;;15.35;5.93;;;;;29.70;96425.00;;;;8326823;28;20535;-73
2023/08/15 16:19:24;;;;;;;10.63;5.47;;;;;29.60;96430.00;;;;8331512;28;20190;-77
2023/08/15 16:23:27;;;;;;;9.27;5.07;;;;;29.50;96440.00;;;;8331961;28;20208;-78
2023/08/15 16:27:35;;;;;;;9.13;5.18;;;;;29.30;96440.00;;;;8328604;28;20233;-80
2023/08/15 16:31:40;;;;;;;8.30;4.53;;;;;29.10;96449.00;;;;8329214;28;20233;-80
2023/08/15 16:35:44;;;;;;;10.05;5.13;;;;;29.10;96456.00;;;;8326868;28;20270;-78
2023/08/15 16:39:49;;;;;;;8.00;5.03;;;;;29.00;96450.00;;;;8331384;28;20190;-77
2023/08/15 16:43:54;;;;;;;12.90;5.43;;;;;28.90;96452.00;;;;8324448;28;20305;-79
2023/08/15 16:48:00;;;;;;;11.77;5.53;;;;;28.80;96455.00;;;;8328434;28;20197;-78
2023/08/15 16:52:04;;;;;;;11.15;5.85;;;;;28.70;96454.00;;;;8331320;28;20204;-71
2023/08/15 16:56:08;;;;;;;9.60;5.55;;;;;28.60;96458.00;;;;8331563;28;20722;-74
2023/08/15 17:00:15;;;;;;;6.82;5.20;;;;;28.50;96468.00;;;;8331718;28;20260;-72
2023/08/15 17:04:19;;;;;;;9.95;5.80;;;;;28.50;96471.00;;;;8332170;28;20689;-73
2023/08/15 17:08:22;;;;;;;9.57;5.93;;;;;28.20;96480.00;;;;8330152;28;20629;-72
2023/08/15 17:12:25;;;;;;;7.15;5.65;;;;;27.90;96491.00;;;;8331216;28;20229;-71
2023/08/15 17:16:30;;;;;;;12.43;6.05;;;;;27.70;96490.00;;;;8331287;28;20296;-72
2023/08/15 17:20:37;;;;;;;13.35;6.55;;;;;27.60;96493.00;;;;8332046;28;20178;-72
2023/08/15 17:24:42;;;;;;;12.63;5.90;;;;;27.40;96492.00;;;;8330829;28;20624;-72
2023/08/15 17:28:45;;;;;;;12.43;6.55;;;;;27.30;96490.00;;;;8331052;28;20212;-74
2023/08/15 17:32:49;;;;;;;12.40;6.38;;;;;27.20;96490.00;;;;8331545;28;20217;-73
2023/08/15 17:36:52;;;;;;;11.73;7.13;;;;;27.10;96501.00;;;;8314136;28;20201;-72
2023/08/15 17:41:02;;;;;;;13.43;6.88;;;;;27.00;96506.00;;;;8331535;28;20221;-72
2023/08/15 17:45:06;;;;;;;9.85;6.45;;;;;27.00;96518.00;;;;8330612;28;20233;-74
2023/08/15 17:49:13;;;;;;;14.32;6.88;;;;;26.90;96529.00;;;;8334171;28;20213;-71
2023/08/15 17:53:16;;;;;;;13.88;7.72;;;;;26.80;96534.00;;;;8336856;28;20720;-71
2023/08/15 17:57:24;;;;;;;8.82;6.82;;;;;26.70;96541.00;;;;8335588;28;20201;-72
2023/08/15 18:01:31;;;;;;;12.15;7.07;;;;;26.70;96549.00;;;;8335958;28;20280;-73
2023/08/15 18:05:35;;;;;;;8.45;6.18;;;;;26.70;96560.00;;;;8328484;28;20189;-73
2023/08/15 18:09:39;;;;;;;7.03;4.55;;;;;26.50;96566.00;;;;8336731;28;20236;-74
2023/08/15 18:13:44;;;;;;;8.02;4.20;;;;;26.10;96582.00;;;;8336841;28;20371;-75
2023/08/15 18:17:48;;;;;;;8.98;4.47;;;;;25.80;96576.00;;;;8335349;28;20196;-74
2023/08/15 18:21:55;;;;;;;6.68;4.18;;;;;25.20;96571.00;;;;8333870;28;20239;-71
2023/08/15 18:25:58;;;;;;;13.02;5.03;;;;;24.70;96571.00;;;;8336339;28;20229;-74
2023/08/15 18:30:03;;;;;;;9.73;3.78;;;;;24.30;96563.00;;;;8333935;28;20284;-73
2023/08/15 18:34:11;;;;;;;6.75;3.72;;;;;24.00;96562.00;;;;8335298;28;20304;-72
2023/08/15 18:38:16;;;;;;;6.97;4.22;;;;;23.80;96554.00;;;;8335026;28;20516;-71
2023/08/15 18:42:21;;;;;;;7.55;4.22;;;;;23.70;96568.00;;;;8335930;28;20308;-72
2023/08/15 18:46:29;;;;;;;10.10;4.47;;;;;23.60;96576.00;;;;8334864;28;20198;-71
2023/08/15 18:50:32;;;;;;;11.60;4.97;;;;;23.50;96580.00;;;;8326160;28;20190;-70
2023/08/15 18:54:37;;;;;;;9.23;5.32;;;;;23.50;96583.00;;;;8335853;28;20316;-71
2023/08/15 18:58:41;;;;;;;8.57;4.95;;;;;23.50;96596.00;;;;8333712;28;20198;-71
2023/08/15 19:02:44;;;;;;;9.98;5.07;;;;;23.40;96601.00;;;;8334952;28;20307;-71
2023/08/15 19:06:50;;;;;;;10.90;5.00;;;;;23.40;96603.00;;;;8335189;28;20646;-70
2023/08/15 19:10:57;;;;;;;17.15;5.40;;;;;23.50;96615.00;;;;8334568;28;20189;-71
2023/08/15 19:15:00;;;;;;;8.55;5.15;;;;;23.50;96620.00;;;;8334160;28;20210;-71
2023/08/15 19:19:06;;;;;;;6.65;5.35;;;;;23.50;96631.00;;;;8334090;28;20276;-71
2023/08/15 19:23:10;;;;;;;13.50;4.97;;;;;23.50;96652.00;;;;8334813;28;20189;-71
2023/08/15 19:27:17;;;;;;;10.80;5.80;;;;;23.60;96651.00;;;;8327137;28;20237;-70
2023/08/15 19:31:23;;;;;;;13.10;7.13;;;;;23.70;96661.00;;;;8301901;28;20639;-71
2023/08/15 19:35:26;;;;;;;18.00;6.63;;;;;23.70;96675.00;;;;8302079;28;20229;-70
2023/08/15 19:39:29;;;;;;;10.98;6.95;;;;;23.60;96684.00;;;;8301490;28;20198;-70
2023/08/15 19:43:37;;;;;;;12.02;6.22;;;;;23.50;96685.00;;;;8301830;28;20205;-70
2023/08/15 19:47:40;;;;;;;11.25;6.63;;;;;23.50;96681.00;;;;8299280;28;20198;-70
2023/08/15 19:51:43;;;;;;;10.85;6.55;;;;;23.40;96679.00;;;;8300574;28;20282;-71
2023/08/15 19:55:48;;;;;;;10.70;6.50;;;;;23.30;96684.00;;;;8300377;28;20222;-70
2023/08/15 19:59:57;;;;;;;8.00;6.40;;;;;23.30;96673.00;;;;8301160;28;20233;-71
2023/08/15 20:04:00;;;;;;;8.75;6.38;;;;;23.30;96672.00;;;;8299620;28;20264;-72
2023/08/15 20:08:07;;;;;;;9.35;5.90;;;;;23.30;96656.00;;;;8299202;28;20217;-71
2023/08/15 20:12:12;;;;;;;11.02;6.63;;;;;23.20;96639.00;;;;8298398;28;20285;-68
2023/08/15 20:16:17;;;;;;;10.95;6.65;;;;;23.20;96628.00;;;;8300563;28;20210;-68
2023/08/15 20:20:23;;;;;;;10.05;6.53;;;;;23.20;96633.00;;;;8299665;28;20229;-68